Time;durP1;ratioP1;P1;durP2;ratioP2;P2;SDS_P1;SDS_P2;PMS_P1;PMS_P2;Temp;Humidity;BMP_temperature;BMP_pressure;BME280_temperature;BME280_humidity;BME280_pressure;Samples;Min_cycle;Max_cycle;Signal;HPM_P1;HPM_P2
2021/11/15 00:01:51;;;;;;;4.90;1.70;;;10.70;93.80;;;;;;5078988;28;20402;-80
2021/11/15 00:04:18;;;;;;;4.15;3.22;;;10.60;93.70;;;;;;5078874;28;20442;-79
2021/11/15 00:06:44;;;;;;;8.50;3.05;;;10.60;93.50;;;;;;5078272;28;20168;-80
2021/11/15 00:09:10;;;;;;;3.50;2.45;;;10.60;94.10;;;;;;5081476;28;20281;-80
2021/11/15 00:11:37;;;;;;;6.75;3.35;;;10.60;94.00;;;;;;5082758;28;20309;-79
2021/11/15 00:14:03;;;;;;;6.03;2.22;;;10.60;94.00;;;;;;5081922;28;20594;-79
2021/11/15 00:16:30;;;;;;;5.10;2.63;;;10.60;93.70;;;;;;5081935;28;20207;-80
2021/11/15 00:18:56;;;;;;;5.78;3.13;;;10.60;93.70;;;;;;5081741;28;20188;-80
2021/11/15 00:21:22;;;;;;;6.18;3.40;;;10.50;93.80;;;;;;5082931;28;20241;-79
2021/11/15 00:23:48;;;;;;;2.47;1.63;;;10.50;94.20;;;;;;5099870;28;20192;-80
2021/11/15 00:26:14;;;;;;;11.70;2.23;;;10.50;93.70;;;;;;5082079;28;20172;-80
2021/11/15 00:28:40;;;;;;;4.57;3.00;;;10.40;93.80;;;;;;5081096;28;20466;-80
2021/11/15 00:31:07;;;;;;;3.50;1.45;;;10.30;94.00;;;;;;5081623;28;20628;-80
2021/11/15 00:33:32;;;;;;;3.50;2.15;;;10.30;94.20;;;;;;5081328;28;20175;-80
2021/11/15 00:35:58;;;;;;;4.47;3.00;;;10.30;94.10;;;;;;5080265;28;20194;-80
2021/11/15 00:38:24;;;;;;;5.57;2.05;;;10.30;94.60;;;;;;5080842;28;20448;-80
2021/11/15 00:40:50;;;;;;;14.27;2.60;;;10.30;94.80;;;;;;5081296;28;20693;-80
2021/11/15 00:43:16;;;;;;;5.17;2.93;;;10.40;94.60;;;;;;5080738;28;20195;-79
2021/11/15 00:45:42;;;;;;;4.20;3.15;;;10.40;94.60;;;;;;5081718;28;20467;-80
2021/11/15 00:48:09;;;;;;;7.50;2.53;;;10.40;94.50;;;;;;5080745;28;20214;-80
2021/11/15 00:50:36;;;;;;;6.72;2.30;;;10.40;94.30;;;;;;5080164;28;20406;-80
2021/11/15 00:53:02;;;;;;;8.43;2.75;;;10.40;94.40;;;;;;5081000;28;20217;-78
2021/11/15 00:55:28;;;;;;;6.33;3.53;;;10.40;94.30;;;;;;5080398;28;20172;-79
2021/11/15 00:57:54;;;;;;;10.20;4.15;;;10.40;94.40;;;;;;5081214;28;20480;-80
2021/11/15 01:00:25;;;;;;;6.55;3.90;;;10.30;93.90;;;;;;5081030;28;20600;-80
2021/11/15 01:02:54;;;;;;;6.97;2.63;;;10.30;94.40;;;;;;5080012;28;20231;-80
2021/11/15 01:05:20;;;;;;;5.65;3.03;;;10.20;94.50;;;;;;5080330;28;20172;-80
2021/11/15 01:07:46;;;;;;;2.83;1.92;;;10.20;94.70;;;;;;5079558;28;20207;-80
2021/11/15 01:10:14;;;;;;;3.77;2.70;;;10.30;94.50;;;;;;5080145;28;20176;-79
2021/11/15 01:12:40;;;;;;;5.68;2.40;;;10.30;94.30;;;;;;5080352;28;20420;-80
2021/11/15 01:15:13;;;;;;;6.88;2.03;;;10.30;94.00;;;;;;5079993;28;20186;-80
2021/11/15 01:17:39;;;;;;;3.10;2.30;;;10.20;93.70;;;;;;5079833;28;20172;-80
2021/11/15 01:20:07;;;;;;;5.75;2.50;;;10.10;93.90;;;;;;5079281;28;20643;-81
2021/11/15 01:22:33;;;;;;;4.57;2.00;;;10.10;94.20;;;;;;5079763;28;20240;-80
2021/11/15 01:24:59;;;;;;;2.30;2.17;;;10.10;93.40;;;;;;5079672;28;20321;-80
2021/11/15 01:27:25;;;;;;;2.70;2.50;;;10.00;93.50;;;;;;5079740;28;20207;-79
2021/11/15 01:29:51;;;;;;;5.32;2.67;;;10.10;93.60;;;;;;5079203;28;20433;-80
2021/11/15 01:32:17;;;;;;;9.18;4.43;;;10.10;93.80;;;;;;5079397;28;20233;-79
2021/11/15 01:34:43;;;;;;;1.25;1.13;;;10.10;93.60;;;;;;5079445;28;20168;-79
2021/11/15 01:37:09;;;;;;;1.73;1.20;;;10.10;93.70;;;;;;5079453;28;20180;-79
2021/11/15 01:39:35;;;;;;;2.92;2.47;;;10.10;93.70;;;;;;5079670;28;20191;-79
2021/11/15 01:42:03;;;;;;;3.80;2.17;;;10.00;93.60;;;;;;5079907;28;20164;-80
2021/11/15 01:44:29;;;;;;;5.07;2.70;;;10.00;93.30;;;;;;5079113;28;20187;-79
2021/11/15 01:46:56;;;;;;;4.25;1.52;;;10.10;93.50;;;;;;5079180;28;20172;-78
2021/11/15 01:49:22;;;;;;;1.63;1.20;;;10.00;93.60;;;;;;5079275;28;20198;-79
2021/11/15 01:51:47;;;;;;;6.23;2.63;;;10.10;93.50;;;;;;5078702;28;20171;-80
2021/11/15 01:54:14;;;;;;;4.10;2.30;;;10.00;93.10;;;;;;5078376;28;20932;-80
2021/11/15 01:56:40;;;;;;;3.72;2.13;;;10.10;93.40;;;;;;5078680;28;20428;-80
2021/11/15 01:59:07;;;;;;;4.72;2.22;;;10.10;92.80;;;;;;5079387;28;20649;-80
2021/11/15 02:01:34;;;;;;;6.55;1.80;;;10.00;92.50;;;;;;5079100;28;20183;-78
2021/11/15 02:04:00;;;;;;;1.27;1.02;;;10.00;92.70;;;;;;5078825;28;20199;-80
2021/11/15 02:06:26;;;;;;;4.03;2.10;;;10.00;93.00;;;;;;5078703;28;20172;-80
2021/11/15 02:08:52;;;;;;;1.58;1.48;;;10.00;92.70;;;;;;5078609;28;20607;-79
2021/11/15 02:11:19;;;;;;;2.42;1.83;;;9.90;92.60;;;;;;5080351;28;20168;-78
2021/11/15 02:13:46;;;;;;;4.10;2.00;;;9.80;92.50;;;;;;5078766;28;20561;-80
2021/11/15 02:16:12;;;;;;;1.30;1.23;;;9.80;92.60;;;;;;5078542;28;20174;-80
2021/11/15 02:18:38;;;;;;;1.48;1.13;;;9.80;92.50;;;;;;5078841;28;20241;-80
2021/11/15 02:21:08;;;;;;;1.40;1.33;;;9.80;92.40;;;;;;5078997;28;20183;-80
2021/11/15 02:23:38;;;;;;;2.53;2.42;;;9.80;92.50;;;;;;5078877;28;20200;-79
2021/11/15 02:26:05;;;;;;;7.35;3.17;;;9.80;92.60;;;;;;5078502;28;20263;-80
2021/11/15 02:28:35;;;;;;;6.68;2.47;;;9.80;93.00;;;;;;5078241;28;20188;-80
2021/11/15 02:31:02;;;;;;;4.63;1.90;;;9.80;93.10;;;;;;5078945;28;20168;-80
2021/11/15 02:33:31;;;;;;;3.13;1.50;;;9.90;92.90;;;;;;5078337;28;20172;-79
2021/11/15 02:35:57;;;;;;;1.33;1.27;;;9.90;92.50;;;;;;5078141;28;20206;-78
2021/11/15 02:38:23;;;;;;;6.00;1.73;;;9.70;92.00;;;;;;5077254;28;20539;-79
2021/11/15 02:40:49;;;;;;;3.70;2.05;;;9.70;92.70;;;;;;5078125;28;20175;-80
2021/11/15 02:43:15;;;;;;;3.00;2.23;;;9.70;92.70;;;;;;5077197;28;20734;-80
2021/11/15 02:45:41;;;;;;;6.50;2.23;;;9.70;93.00;;;;;;5077094;28;20428;-80
2021/11/15 02:48:07;;;;;;;4.20;1.67;;;9.80;92.70;;;;;;5077163;28;20426;-79
2021/11/15 02:50:34;;;;;;;3.70;1.30;;;9.80;92.90;;;;;;5077294;28;20662;-79
2021/11/15 02:53:04;;;;;;;3.00;2.25;;;9.80;92.40;;;;;;5077170;28;20171;-79
2021/11/15 02:55:30;;;;;;;9.38;1.75;;;9.70;92.40;;;;;;5077140;28;20183;-79
2021/11/15 02:57:57;;;;;;;4.35;2.40;;;9.70;92.60;;;;;;5077153;28;20191;-80
2021/11/15 03:00:34;;;;;;;3.70;2.83;;;9.70;92.70;;;;;;5077076;28;20182;-79
2021/11/15 03:02:59;;;;;;;2.90;1.95;;;9.60;92.60;;;;;;5077382;28;20202;-79
2021/11/15 03:05:31;;;;;;;5.40;1.53;;;9.60;92.90;;;;;;5077232;28;20168;-79
2021/11/15 03:07:58;;;;;;;9.43;3.38;;;9.60;92.80;;;;;;5076744;28;20453;-79
2021/11/15 03:10:24;;;;;;;6.05;2.33;;;9.60;92.80;;;;;;5077020;28;20705;-79
2021/11/15 03:12:51;;;;;;;3.55;1.50;;;9.70;92.80;;;;;;5076983;28;20168;-79
2021/11/15 03:15:26;;;;;;;4.28;1.50;;;9.60;92.50;;;;;;5077745;28;20544;-79
2021/11/15 03:17:59;;;;;;;7.15;2.45;;;9.60;92.80;;;;;;5077089;28;20240;-79
2021/11/15 03:20:38;;;;;;;1.85;1.80;;;9.60;92.80;;;;;;5077176;28;20175;-79
2021/11/15 03:23:07;;;;;;;4.13;3.10;;;9.70;93.00;;;;;;5077248;28;20724;-79
2021/11/15 03:25:32;;;;;;;4.35;2.97;;;9.80;92.30;;;;;;5076135;28;20172;-79
2021/11/15 03:27:59;;;;;;;6.80;1.70;;;9.70;92.20;;;;;;5075894;28;20191;-79
2021/11/15 03:30:26;;;;;;;2.28;1.38;;;9.70;92.90;;;;;;5076368;28;20822;-79
2021/11/15 03:32:53;;;;;;;3.92;2.17;;;9.80;93.00;;;;;;5076219;28;20211;-80
2021/11/15 03:35:20;;;;;;;5.53;2.67;;;9.80;92.60;;;;;;5077100;28;20195;-80
2021/11/15 03:37:46;;;;;;;1.85;1.40;;;9.80;92.20;;;;;;5077410;28;20551;-79
2021/11/15 03:40:20;;;;;;;1.17;1.10;;;9.80;92.30;;;;;;5076786;28;20171;-80
2021/11/15 03:42:47;;;;;;;2.50;1.45;;;9.80;92.20;;;;;;5077310;28;20855;-80
2021/11/15 03:45:14;;;;;;;3.92;2.35;;;9.80;92.30;;;;;;5080343;28;20195;-80
2021/11/15 03:47:41;;;;;;;6.15;2.88;;;9.80;92.40;;;;;;5081038;28;20164;-79
2021/11/15 03:50:11;;;;;;;3.70;2.13;;;9.70;92.60;;;;;;5080823;28;20560;-80
2021/11/15 03:52:38;;;;;;;4.35;2.78;;;9.70;92.60;;;;;;5080880;28;20215;-80
2021/11/15 03:55:07;;;;;;;9.60;2.80;;;9.60;92.30;;;;;;5081258;28;20180;-80
2021/11/15 03:57:33;;;;;;;2.75;1.35;;;9.60;92.40;;;;;;5083085;28;20172;-79
2021/11/15 03:59:59;;;;;;;3.80;2.20;;;9.50;92.40;;;;;;5080761;28;20176;-79
2021/11/15 04:02:28;;;;;;;2.97;1.30;;;9.40;92.80;;;;;;5081200;28;20253;-79
2021/11/15 04:05:02;;;;;;;4.57;1.77;;;9.30;93.20;;;;;;5081274;28;20883;-80
2021/11/15 04:07:35;;;;;;;6.78;1.15;;;9.30;93.30;;;;;;5081259;28;20188;-79
2021/11/15 04:10:13;;;;;;;4.30;2.33;;;9.30;93.60;;;;;;5080992;28;20221;-78
2021/11/15 04:12:40;;;;;;;1.63;1.50;;;9.30;93.30;;;;;;5080751;28;20167;-80
2021/11/15 04:15:08;;;;;;;9.15;2.65;;;9.30;93.20;;;;;;5080661;28;20168;-80
2021/11/15 04:17:35;;;;;;;4.45;2.35;;;9.30;93.00;;;;;;5080979;28;20203;-80
2021/11/15 04:20:02;;;;;;;5.35;2.83;;;9.30;93.10;;;;;;5080661;28;20213;-79
2021/11/15 04:22:27;;;;;;;5.38;3.25;;;9.30;93.70;;;;;;5081398;28;20191;-80
2021/11/15 04:24:53;;;;;;;2.20;2.00;;;9.20;93.50;;;;;;5080070;28;20179;-80
2021/11/15 04:27:19;;;;;;;6.00;3.00;;;9.20;93.60;;;;;;5080770;28;20196;-79
2021/11/15 04:29:45;;;;;;;9.07;2.73;;;9.30;93.10;;;;;;5080409;28;20432;-79
2021/11/15 04:32:11;;;;;;;5.17;2.30;;;9.30;93.10;;;;;;5080494;28;20418;-79
2021/11/15 04:34:38;;;;;;;2.40;1.63;;;9.30;93.30;;;;;;5080906;28;20430;-79
2021/11/15 04:37:04;;;;;;;2.95;1.40;;;9.30;93.30;;;;;;5080641;28;20413;-80
2021/11/15 04:39:30;;;;;;;4.43;2.38;;;9.30;93.40;;;;;;5080541;28;20253;-79
2021/11/15 04:41:56;;;;;;;8.13;1.67;;;9.30;93.10;;;;;;5079861;28;20183;-80
2021/11/15 04:44:22;;;;;;;7.63;3.17;;;9.30;92.90;;;;;;5080242;28;20924;-80
2021/11/15 04:46:48;;;;;;;1.25;0.93;;;9.30;92.80;;;;;;5081480;28;20449;-80
2021/11/15 04:49:14;;;;;;;10.57;4.90;;;9.30;93.10;;;;;;5081050;28;20663;-80
2021/11/15 04:51:40;;;;;;;4.33;1.50;;;9.30;93.00;;;;;;5079952;28;20168;-80
2021/11/15 04:54:06;;;;;;;1.70;1.23;;;9.20;93.00;;;;;;5079793;28;20406;-80
2021/11/15 04:56:32;;;;;;;2.60;0.93;;;9.20;93.00;;;;;;5079426;28;20410;-80
2021/11/15 04:58:58;;;;;;;2.00;1.10;;;9.20;93.40;;;;;;5079908;28;20683;-79
2021/11/15 05:01:24;;;;;;;3.10;2.58;;;9.10;93.20;;;;;;5081150;28;20410;-81
2021/11/15 05:03:50;;;;;;;3.87;1.20;;;9.20;93.50;;;;;;5079871;28;20200;-79
2021/11/15 05:06:19;;;;;;;3.37;2.60;;;9.10;93.80;;;;;;5080395;28;20265;-79
2021/11/15 05:08:46;;;;;;;3.00;1.95;;;9.20;93.60;;;;;;5079618;28;20607;-80
2021/11/15 05:11:11;;;;;;;3.00;1.70;;;9.20;93.70;;;;;;5079916;28;20565;-79
2021/11/15 05:13:37;;;;;;;1.20;1.10;;;9.20;93.30;;;;;;5079892;28;20168;-80
2021/11/15 05:16:03;;;;;;;3.20;1.53;;;9.30;93.40;;;;;;5080240;28;20179;-79
2021/11/15 05:18:29;;;;;;;4.20;3.00;;;9.30;93.40;;;;;;5079683;28;20196;-79
2021/11/15 05:20:55;;;;;;;2.80;2.60;;;9.20;93.40;;;;;;5079732;28;20184;-80
2021/11/15 05:23:20;;;;;;;6.37;2.63;;;9.20;93.40;;;;;;5079499;28;20450;-80
2021/11/15 05:25:46;;;;;;;3.30;1.80;;;9.20;93.50;;;;;;5079415;28;20406;-80
2021/11/15 05:28:13;;;;;;;1.90;1.00;;;9.30;93.30;;;;;;5079494;28;20441;-80
2021/11/15 05:30:40;;;;;;;4.20;2.58;;;9.20;92.90;;;;;;5080068;28;20406;-80
2021/11/15 05:33:06;;;;;;;6.45;1.83;;;9.30;93.20;;;;;;5079668;28;20184;-80
2021/11/15 05:35:31;;;;;;;2.83;1.52;;;9.20;93.20;;;;;;5079336;28;20172;-80
2021/11/15 05:37:57;;;;;;;2.43;1.83;;;9.20;93.30;;;;;;5080291;28;20191;-80
2021/11/15 05:40:25;;;;;;;1.73;1.00;;;9.30;93.70;;;;;;5080314;28;20409;-80
2021/11/15 05:42:53;;;;;;;3.45;1.85;;;9.30;93.70;;;;;;5079668;28;20815;-80
2021/11/15 05:45:20;;;;;;;20.42;2.55;;;9.30;93.40;;;;;;5079832;28;20293;-80
2021/11/15 05:47:46;;;;;;;4.93;1.27;;;9.30;93.30;;;;;;5079884;28;20187;-80
2021/11/15 05:50:13;;;;;;;2.00;0.90;;;9.30;93.20;;;;;;5080054;28;20186;-80
2021/11/15 05:52:41;;;;;;;4.55;2.55;;;9.30;93.30;;;;;;5079978;28;20921;-80
2021/11/15 05:55:14;;;;;;;4.38;1.45;;;9.40;93.30;;;;;;5079360;28;20175;-80
2021/11/15 05:57:40;;;;;;;13.68;3.38;;;9.40;93.10;;;;;;5079747;28;20168;-79
2021/11/15 06:00:09;;;;;;;7.03;3.38;;;9.50;93.20;;;;;;5080249;28;20680;-81
2021/11/15 06:02:35;;;;;;;3.75;1.33;;;9.50;92.90;;;;;;5079452;28;20256;-79
2021/11/15 06:05:01;;;;;;;5.17;2.50;;;9.50;92.70;;;;;;5079203;28;20569;-79
2021/11/15 06:07:26;;;;;;;2.30;1.90;;;9.50;93.00;;;;;;5078818;28;20188;-80
2021/11/15 06:09:52;;;;;;;4.40;2.30;;;9.50;92.90;;;;;;5080439;28;20421;-81
2021/11/15 06:12:18;;;;;;;3.63;2.30;;;9.50;92.90;;;;;;5079800;28;20163;-80
2021/11/15 06:14:44;;;;;;;5.63;2.17;;;9.50;93.00;;;;;;5078766;28;20175;-81
2021/11/15 06:17:10;;;;;;;3.28;1.70;;;9.50;93.00;;;;;;5080957;28;20414;-78
2021/11/15 06:19:35;;;;;;;5.63;3.13;;;9.40;93.20;;;;;;5079208;28;20274;-81
2021/11/15 06:22:02;;;;;;;4.20;2.47;;;9.30;93.20;;;;;;5079030;28;20168;-79
2021/11/15 06:24:28;;;;;;;3.40;1.90;;;9.40;93.40;;;;;;5078934;28;20202;-79
2021/11/15 06:26:54;;;;;;;6.40;2.22;;;9.40;93.40;;;;;;5079867;28;20175;-80
2021/11/15 06:29:20;;;;;;;6.03;2.63;;;9.40;93.00;;;;;;5080325;28;20184;-80
2021/11/15 06:31:46;;;;;;;4.70;2.20;;;9.40;93.10;;;;;;5080932;28;20398;-80
2021/11/15 06:34:12;;;;;;;10.27;2.28;;;9.40;93.10;;;;;;5079803;28;20203;-79
2021/11/15 06:36:38;;;;;;;3.77;3.10;;;9.30;93.30;;;;;;5079322;28;20197;-80
2021/11/15 06:39:04;;;;;;;2.08;1.70;;;9.30;93.80;;;;;;5079341;28;20429;-79
2021/11/15 06:41:30;;;;;;;3.05;2.20;;;9.40;93.40;;;;;;5079599;28;20171;-80
2021/11/15 06:43:56;;;;;;;3.05;1.60;;;9.30;93.40;;;;;;5079680;28;20228;-80
2021/11/15 06:46:25;;;;;;;5.13;1.90;;;9.30;93.40;;;;;;5063257;28;20232;-80
2021/11/15 06:48:51;;;;;;;6.00;1.83;;;9.20;93.70;;;;;;5079797;28;20213;-79
2021/11/15 06:51:17;;;;;;;3.03;1.23;;;9.30;93.60;;;;;;5079461;28;20172;-80
2021/11/15 06:53:44;;;;;;;1.47;1.07;;;9.30;93.40;;;;;;5079573;28;20689;-80
2021/11/15 06:56:11;;;;;;;3.42;2.13;;;9.40;93.30;;;;;;5079969;28;20646;-80
2021/11/15 06:58:37;;;;;;;4.68;1.92;;;9.40;93.30;;;;;;5079977;28;20191;-80
2021/11/15 07:01:04;;;;;;;4.40;3.25;;;9.40;93.00;;;;;;5079848;28;20176;-80
2021/11/15 07:03:30;;;;;;;2.88;1.52;;;9.50;92.70;;;;;;5079733;28;20219;-80
2021/11/15 07:05:56;;;;;;;9.85;2.75;;;9.50;92.70;;;;;;5080511;28;20175;-80
2021/11/15 07:08:22;;;;;;;6.97;4.03;;;9.40;92.80;;;;;;5080551;28;20199;-80
2021/11/15 07:10:48;;;;;;;3.03;1.77;;;9.40;93.00;;;;;;5079720;28;20175;-80
2021/11/15 07:13:14;;;;;;;3.53;1.83;;;9.30;93.30;;;;;;5079531;28;20645;-80
2021/11/15 07:15:43;;;;;;;1.92;1.83;;;9.20;93.30;;;;;;5079285;28;20448;-80
2021/11/15 07:18:16;;;;;;;4.00;2.25;;;9.20;93.40;;;;;;5077641;28;20678;-80
2021/11/15 07:20:42;;;;;;;7.03;2.55;;;9.20;93.70;;;;;;5078876;28;20258;-80
2021/11/15 07:23:08;;;;;;;5.28;1.77;;;9.20;93.80;;;;;;5078982;28;20225;-80
2021/11/15 07:25:34;;;;;;;1.17;1.00;;;9.30;93.40;;;;;;5078465;28;20652;-80
2021/11/15 07:28:00;;;;;;;2.92;2.65;;;9.30;93.70;;;;;;5078844;28;20187;-80
2021/11/15 07:30:26;;;;;;;5.50;2.80;;;9.40;93.70;;;;;;5078804;28;20262;-80
2021/11/15 07:32:53;;;;;;;1.88;1.58;;;9.30;93.90;;;;;;5078422;28;20910;-79
2021/11/15 07:35:20;;;;;;;5.88;2.60;;;9.40;93.90;;;;;;5078054;28;20167;-80
2021/11/15 07:37:45;;;;;;;4.53;1.98;;;9.40;93.80;;;;;;5078638;28;20627;-80
2021/11/15 07:40:15;;;;;;;2.57;1.93;;;9.40;93.30;;;;;;5080113;28;20172;-81
2021/11/15 07:42:41;;;;;;;4.53;2.42;;;9.40;93.40;;;;;;5078439;28;20220;-81
2021/11/15 07:45:08;;;;;;;4.07;1.90;;;9.40;93.30;;;;;;5078371;28;20203;-81
2021/11/15 07:47:35;;;;;;;2.90;1.55;;;9.50;93.40;;;;;;5079176;28;20168;-80
2021/11/15 07:50:04;;;;;;;7.18;3.35;;;9.50;93.20;;;;;;5078557;28;20229;-80
2021/11/15 07:52:31;;;;;;;1.42;1.33;;;9.40;93.30;;;;;;5078500;28;20193;-80
2021/11/15 07:55:01;;;;;;;8.27;3.03;;;9.40;93.80;;;;;;5078798;28;20224;-81
2021/11/15 07:57:27;;;;;;;4.05;2.53;;;9.50;93.40;;;;;;5077756;28;20171;-81
2021/11/15 07:59:53;;;;;;;2.58;1.50;;;9.40;93.70;;;;;;5079225;28;20172;-81
2021/11/15 08:02:19;;;;;;;3.70;1.65;;;9.40;93.00;;;;;;5078420;28;20164;-81
2021/11/15 08:04:46;;;;;;;1.90;1.50;;;9.50;93.10;;;;;;5078529;28;20229;-80
2021/11/15 08:07:12;;;;;;;4.38;2.63;;;9.50;93.10;;;;;;5077985;28;20425;-80
2021/11/15 08:09:40;;;;;;;1.70;1.60;;;9.60;93.50;;;;;;5078381;28;20699;-81
2021/11/15 08:12:08;;;;;;;7.63;2.45;;;9.60;93.30;;;;;;5078933;28;20164;-80
2021/11/15 08:14:35;;;;;;;2.55;1.60;;;9.70;93.00;;;;;;5077594;28;20192;-80
2021/11/15 08:17:02;;;;;;;4.60;2.22;;;9.70;93.10;;;;;;5078391;28;20179;-81
2021/11/15 08:19:28;;;;;;;5.47;2.50;;;9.60;93.20;;;;;;5077455;28;20618;-84
2021/11/15 08:21:54;;;;;;;4.00;1.73;;;9.60;92.80;;;;;;5077114;28;20175;-84
2021/11/15 08:24:21;;;;;;;4.53;1.50;;;9.60;93.00;;;;;;5077599;28;20535;-83
2021/11/15 08:26:57;;;;;;;9.35;1.92;;;9.60;93.20;;;;;;5077329;28;20168;-82
2021/11/15 08:29:25;;;;;;;6.93;3.67;;;9.60;93.80;;;;;;5079269;28;20210;-83
2021/11/15 08:31:52;;;;;;;3.42;1.75;;;9.60;93.70;;;;;;5081317;28;20560;-84
2021/11/15 08:34:19;;;;;;;6.63;1.90;;;9.70;93.40;;;;;;5081378;28;20182;-83
2021/11/15 08:36:45;;;;;;;4.60;2.22;;;9.70;93.10;;;;;;5081182;28;20199;-82
2021/11/15 08:39:17;;;;;;;6.63;2.67;;;9.70;93.20;;;;;;5081557;28;20199;-83
2021/11/15 08:41:51;;;;;;;3.40;1.60;;;9.70;93.10;;;;;;5081063;28;20697;-83
2021/11/15 08:44:18;;;;;;;5.18;2.80;;;9.70;93.50;;;;;;5081391;28;20199;-83
2021/11/15 08:46:47;;;;;;;2.65;1.90;;;9.70;93.00;;;;;;5080636;28;20696;-83
2021/11/15 08:49:17;;;;;;;2.55;1.50;;;9.70;93.00;;;;;;5081486;28;20187;-83
2021/11/15 08:51:43;;;;;;;4.75;2.60;;;9.70;93.30;;;;;;5081710;28;20218;-83
2021/11/15 08:54:15;;;;;;;6.88;1.88;;;9.70;93.00;;;;;;5081334;28;20271;-83
2021/11/15 08:56:43;;;;;;;2.95;2.78;;;9.70;93.30;;;;;;5081036;28;20172;-83
2021/11/15 08:59:09;;;;;;;6.75;2.08;;;9.70;93.10;;;;;;5081621;28;20195;-83
2021/11/15 09:01:35;;;;;;;7.65;3.97;;;9.70;93.40;;;;;;5080939;28;20652;-82
2021/11/15 09:04:01;;;;;;;4.40;1.87;;;9.60;93.20;;;;;;5080673;28;20199;-84
2021/11/15 09:06:30;;;;;;;6.82;2.20;;;9.60;93.70;;;;;;5081691;28;20410;-83
2021/11/15 09:08:56;;;;;;;3.10;2.00;;;9.70;93.60;;;;;;5081055;28;20550;-83
2021/11/15 09:11:23;;;;;;;3.03;1.65;;;9.70;93.20;;;;;;5081273;28;20168;-83
2021/11/15 09:13:48;;;;;;;4.78;1.60;;;9.70;93.00;;;;;;5080261;28;20180;-83
2021/11/15 09:16:15;;;;;;;17.57;3.13;;;9.80;93.20;;;;;;5080722;28;20287;-83
2021/11/15 09:18:43;;;;;;;4.93;2.03;;;9.80;92.60;;;;;;5081457;28;20969;-83
2021/11/15 09:21:10;;;;;;;1.98;1.85;;;9.90;92.00;;;;;;5081386;28;20687;-83
2021/11/15 09:23:42;;;;;;;5.20;3.10;;;9.90;92.10;;;;;;5081167;28;20215;-82
2021/11/15 09:26:10;;;;;;;2.17;2.03;;;9.90;91.70;;;;;;5081744;28;20210;-84
2021/11/15 09:28:37;;;;;;;4.40;2.30;;;10.00;91.70;;;;;;5082204;28;20188;-84
2021/11/15 09:31:04;;;;;;;4.30;3.08;;;10.00;91.80;;;;;;5081319;28;20660;-85
2021/11/15 09:33:30;;;;;;;10.10;2.50;;;10.00;91.90;;;;;;5080513;28;20192;-84
2021/11/15 09:35:56;;;;;;;6.22;2.25;;;10.00;91.70;;;;;;5080049;28;20184;-82
2021/11/15 09:38:24;;;;;;;7.30;3.33;;;10.00;91.10;;;;;;5080290;28;20219;-83
2021/11/15 09:41:02;;;;;;;5.00;2.38;;;10.00;91.60;;;;;;5079382;28;20636;-83
2021/11/15 09:43:35;;;;;;;2.97;1.70;;;10.00;91.40;;;;;;5079488;28;20195;-81
2021/11/15 09:46:19;;;;;;;6.70;2.65;;;10.00;91.30;;;;;;5079533;28;20624;-82
2021/11/15 09:48:48;;;;;;;10.98;2.95;;;10.00;92.10;;;;;;5079527;28;20188;-83
2021/11/15 09:51:16;;;;;;;7.38;2.67;;;10.10;92.00;;;;;;5079501;28;20267;-82
2021/11/15 09:53:42;;;;;;;8.55;3.28;;;10.00;92.00;;;;;;5079058;28;20648;-82
2021/11/15 09:56:11;;;;;;;8.77;4.05;;;9.90;91.90;;;;;;5079804;28;20240;-83
2021/11/15 09:58:38;;;;;;;5.20;1.67;;;10.00;91.60;;;;;;5079111;28;20196;-82
2021/11/15 10:01:05;;;;;;;1.30;1.23;;;10.00;91.80;;;;;;5079171;28;20213;-83
2021/11/15 10:03:32;;;;;;;3.67;2.25;;;10.10;91.40;;;;;;5079274;28;20575;-82
2021/11/15 10:05:58;;;;;;;7.93;2.95;;;10.10;91.10;;;;;;5078394;28;20168;-83
2021/11/15 10:08:24;;;;;;;2.97;2.50;;;10.10;91.20;;;;;;5079406;28;20315;-83
2021/11/15 10:10:58;;;;;;;3.27;1.10;;;10.20;91.40;;;;;;5080503;28;20172;-83
2021/11/15 10:13:34;;;;;;;3.78;3.25;;;10.20;91.30;;;;;;5062526;28;20825;-81
2021/11/15 10:16:14;;;;;;;4.47;2.33;;;10.20;91.50;;;;;;5078748;28;20168;-82
2021/11/15 10:18:58;;;;;;;6.72;2.55;;;10.20;91.30;;;;;;5078233;28;20192;-85
2021/11/15 10:21:46;;;;;;;6.72;3.00;;;10.20;90.40;;;;;;5079540;28;20605;-85
2021/11/15 10:24:16;;;;;;;11.60;2.08;;;10.20;91.00;;;;;;5080578;28;20207;-84
2021/11/15 10:26:56;;;;;;;2.05;1.92;;;10.20;90.70;;;;;;5079919;28;20224;-82
2021/11/15 10:29:24;;;;;;;4.85;2.20;;;10.20;90.60;;;;;;5079032;28;20183;-82
2021/11/15 10:31:50;;;;;;;8.88;1.83;;;10.20;90.20;;;;;;5080190;28;20251;-84
2021/11/15 10:34:21;;;;;;;3.67;2.20;;;10.20;90.30;;;;;;5079974;28;20200;-83
2021/11/15 10:36:58;;;;;;;2.60;1.65;;;10.20;90.60;;;;;;5079875;28;20168;-85
2021/11/15 10:39:29;;;;;;;7.40;4.47;;;10.20;90.10;;;;;;5079390;28;20290;-84
2021/11/15 10:42:01;;;;;;;11.63;2.95;;;10.10;91.00;;;;;;5079461;28;20241;-84
2021/11/15 10:44:28;;;;;;;6.63;2.17;;;10.10;90.90;;;;;;5079548;28;20667;-83
2021/11/15 10:46:54;;;;;;;5.40;3.00;;;10.00;90.90;;;;;;5079395;28;20167;-83
2021/11/15 10:49:23;;;;;;;3.22;2.88;;;10.00;91.30;;;;;;5078090;28;20218;-84
2021/11/15 10:51:57;;;;;;;7.60;3.20;;;10.00;91.80;;;;;;5079334;28;20164;-83
2021/11/15 10:54:59;;;;;;;5.55;3.17;;;10.00;91.40;;;;;;5077897;28;20167;-83
2021/11/15 10:57:29;;;;;;;3.85;1.90;;;9.90;91.50;;;;;;5078766;28;20170;-84
2021/11/15 11:00:12;;;;;;;5.57;2.70;;;10.00;91.70;;;;;;5083612;28;20272;-84
2021/11/15 11:02:41;;;;;;;3.55;1.85;;;9.90;91.70;;;;;;5081526;28;20167;-84
2021/11/15 11:05:09;;;;;;;17.60;4.45;;;10.00;91.70;;;;;;5080304;28;20164;-83
2021/11/15 11:07:36;;;;;;;3.65;3.28;;;10.00;91.90;;;;;;5078459;28;20179;-84
2021/11/15 11:10:14;;;;;;;4.50;2.90;;;10.00;92.00;;;;;;5077950;28;20207;-83
2021/11/15 11:12:42;;;;;;;2.92;2.05;;;10.00;92.50;;;;;;5096579;28;20159;-83
2021/11/15 11:15:35;;;;;;;8.45;3.60;;;10.10;92.30;;;;;;5078328;28;20570;-83
2021/11/15 11:18:32;;;;;;;10.23;3.88;;;10.10;92.00;;;;;;5078442;28;20272;-84
2021/11/15 11:26:34;;;;;;;3.67;2.92;;;10.20;91.10;;;;;;5096935;28;20167;-84
2021/11/15 11:29:09;;;;;;;10.52;3.33;;;10.30;91.30;;;;;;5079877;28;20559;-84
2021/11/15 11:31:37;;;;;;;6.00;3.08;;;10.20;91.10;;;;;;5078678;28;20198;-84
2021/11/15 11:34:03;;;;;;;5.50;2.20;;;10.20;91.00;;;;;;5078643;28;20648;-83
2021/11/15 11:36:29;;;;;;;9.18;3.00;;;10.20;91.10;;;;;;5078410;28;20171;-84
2021/11/15 11:38:55;;;;;;;11.77;3.42;;;10.30;90.70;;;;;;5079135;28;20219;-84
2021/11/15 11:41:21;;;;;;;8.68;4.03;;;10.30;90.40;;;;;;5079600;28;20599;-84
2021/11/15 11:43:49;;;;;;;3.30;2.92;;;10.20;90.50;;;;;;5080696;28;20192;-84
2021/11/15 11:46:18;;;;;;;7.13;4.90;;;10.10;90.80;;;;;;5080918;28;20174;-84
2021/11/15 11:48:50;;;;;;;7.10;2.65;;;10.10;92.20;;;;;;5080532;28;20282;-84
2021/11/15 11:51:16;;;;;;;4.70;2.53;;;10.20;91.80;;;;;;5080660;28;20175;-84
2021/11/15 11:53:42;;;;;;;7.10;3.60;;;10.20;91.60;;;;;;5080032;28;20252;-83
2021/11/15 11:56:23;;;;;;;6.63;2.85;;;10.20;91.50;;;;;;5079712;28;20180;-84
2021/11/15 11:58:53;;;;;;;10.43;4.75;;;10.20;91.70;;;;;;5079238;28;20187;-84
2021/11/15 12:01:21;;;;;;;5.45;2.10;;;10.10;91.70;;;;;;5080299;28;20221;-84
2021/11/15 12:04:10;;;;;;;9.20;4.18;;;10.20;91.60;;;;;;5079333;28;20211;-84
2021/11/15 12:06:37;;;;;;;9.43;2.97;;;10.10;91.80;;;;;;5083347;28;20168;-84
2021/11/15 12:09:04;;;;;;;3.97;2.00;;;10.10;91.40;;;;;;5083115;28;20207;-84
2021/11/15 12:11:54;;;;;;;4.22;3.97;;;10.20;91.50;;;;;;5083899;28;20172;-83
2021/11/15 12:14:36;;;;;;;13.15;4.00;;;10.20;91.60;;;;;;5083227;28;20164;-83
2021/11/15 12:17:07;;;;;;;5.70;3.72;;;10.20;91.80;;;;;;5082879;28;20168;-84
2021/11/15 12:19:58;;;;;;;14.93;3.92;;;10.20;91.80;;;;;;5083151;28;20203;-84
2021/11/15 12:22:26;;;;;;;7.78;2.95;;;10.30;91.30;;;;;;5083321;28;20203;-84
2021/11/15 12:25:05;;;;;;;7.80;2.72;;;10.30;91.50;;;;;;5082681;28;20183;-84
2021/11/15 12:27:42;;;;;;;9.43;3.33;;;10.20;91.40;;;;;;5082176;28;20730;-79
2021/11/15 12:30:33;;;;;;;11.00;4.88;;;10.20;91.10;;;;;;5081844;28;20254;-79
2021/11/15 12:33:20;;;;;;;7.47;2.92;;;10.20;90.70;;;;;;5081296;28;20180;-79
2021/11/15 12:36:09;;;;;;;5.50;3.30;;;10.10;91.10;;;;;;5081296;28;20192;-79
2021/11/15 12:38:40;;;;;;;12.05;3.15;;;10.10;91.50;;;;;;5080850;28;20192;-79
2021/11/15 12:41:19;;;;;;;6.13;2.65;;;10.10;91.60;;;;;;5081815;28;20208;-78
2021/11/15 12:44:03;;;;;;;7.15;4.05;;;10.20;91.50;;;;;;5081852;28;20198;-79
2021/11/15 12:46:38;;;;;;;5.25;3.72;;;10.10;91.50;;;;;;5082656;28;20160;-78
2021/11/15 12:49:36;;;;;;;4.82;2.53;;;10.20;91.50;;;;;;5082987;28;20191;-79
2021/11/15 12:52:09;;;;;;;9.95;3.35;;;10.20;91.20;;;;;;5067456;28;20184;-79
2021/11/15 12:54:40;;;;;;;7.60;4.55;;;10.20;91.40;;;;;;5081719;28;20176;-79
2021/11/15 12:57:08;;;;;;;2.90;2.08;;;10.20;91.60;;;;;;5082026;28;20206;-79
2021/11/15 12:59:39;;;;;;;6.78;2.30;;;10.20;91.20;;;;;;5085696;28;20196;-79
2021/11/15 13:02:10;;;;;;;6.90;2.75;;;10.20;91.40;;;;;;5083732;28;20164;-80
2021/11/15 13:04:38;;;;;;;6.63;3.60;;;10.10;91.30;;;;;;5083698;28;20211;-81
2021/11/15 13:07:25;;;;;;;5.10;3.60;;;10.20;90.70;;;;;;5083341;28;20176;-80